createdAt,value
2022-12-18T00:00:08.402Z,95218.81
2022-12-18T00:02:36.465Z,95231.34
2022-12-18T00:05:04.398Z,95233.13
2022-12-18T00:07:32.381Z,95238.97
2022-12-18T00:10:00.364Z,95243.22
2022-12-18T00:12:29.948Z,95251.03
2022-12-18T00:14:58.776Z,95260.16
2022-12-18T00:17:28.098Z,95282.28
2022-12-18T00:19:56.034Z,95266.34
2022-12-18T00:22:24.270Z,95277.91
2022-12-18T00:24:52.429Z,95285.72
2022-12-18T00:27:21.814Z,95262.75
2022-12-18T00:29:50.547Z,95279.53
2022-12-18T00:32:19.054Z,95298.91
2022-12-18T00:34:49.208Z,95303.00
2022-12-18T00:37:20.236Z,95287.97
2022-12-18T00:39:50.380Z,95297.25
2022-12-18T00:42:36.237Z,95287.97
2022-12-18T00:45:09.049Z,95298.25
2022-12-18T00:47:41.417Z,95303.47
2022-12-18T00:50:12.462Z,95295.63
2022-12-18T00:52:41.256Z,95316.69
2022-12-18T00:55:10.219Z,95300.22
2022-12-18T00:57:39.542Z,95336.38
2022-12-18T01:00:12.302Z,95323.50
2022-12-18T01:02:40.816Z,95327.91
2022-12-18T01:05:11.808Z,95343.88
2022-12-18T01:07:39.618Z,95334.75
2022-12-18T01:10:10.007Z,95347.31
2022-12-18T01:12:37.985Z,95356.59
2022-12-18T01:15:09.153Z,95350.72
2022-12-18T01:17:37.328Z,95363.44
2022-12-18T01:20:06.445Z,95365.06
2022-12-18T01:22:35.710Z,95370.28
2022-12-18T01:25:04.582Z,95357.41
2022-12-18T01:27:32.780Z,95364.25
2022-12-18T01:30:01.243Z,95369.44
2022-12-18T01:32:32.416Z,95369.44
2022-12-18T01:35:00.684Z,95379.38
2022-12-18T01:37:28.518Z,95367.66
2022-12-18T01:39:57.932Z,95390.47
2022-12-18T01:42:26.575Z,95394.69
2022-12-18T01:45:01.625Z,95408.22
2022-12-18T01:47:35.659Z,95417.50
2022-12-18T01:50:09.760Z,95395.34
2022-12-18T01:52:40.034Z,95398.78
2022-12-18T01:55:11.321Z,95409.03
2022-12-18T01:57:40.096Z,95413.28
2022-12-18T02:00:13.070Z,95431.53
2022-12-18T02:02:42.153Z,95426.97
2022-12-18T02:05:11.331Z,95449.81
2022-12-18T02:07:50.439Z,95447.84
2022-12-18T02:10:26.735Z,95429.25
2022-12-18T02:13:03.637Z,95440.53
2022-12-18T02:15:37.671Z,95446.38
2022-12-18T02:18:11.118Z,95455.69
2022-12-18T02:20:45.938Z,95440.34
2022-12-18T02:23:26.206Z,95467.75
2022-12-18T02:26:12.244Z,95461.53
2022-12-18T02:28:44.549Z,95455.84
2022-12-18T02:31:16.924Z,95468.41
2022-12-18T02:33:46.883Z,95461.88
2022-12-18T02:36:17.127Z,95470.84
2022-12-18T02:38:46.676Z,95479.47
2022-12-18T02:41:18.613Z,95493.00
2022-12-18T02:43:55.509Z,95478.81
2022-12-18T02:46:33.253Z,95478.50
2022-12-18T02:49:13.620Z,95508.34
2022-12-18T02:51:52.626Z,95490.22
2022-12-18T02:54:37.207Z,95492.19
2022-12-18T02:57:17.155Z,95499.84
2022-12-18T02:59:55.397Z,95493.50
2022-12-18T03:02:29.115Z,95494.81
2022-12-18T03:05:02.767Z,95493.81
2022-12-18T03:07:39.087Z,95476.06
2022-12-18T03:10:11.178Z,95491.53
2022-12-18T03:12:45.013Z,95482.72
2022-12-18T03:15:17.955Z,95480.47
2022-12-18T03:17:51.688Z,95480.47
2022-12-18T03:20:22.653Z,95476.22
2022-12-18T03:22:55.672Z,95454.22
2022-12-18T03:25:24.752Z,95457.81
2022-12-18T03:27:58.770Z,95475.25
2022-12-18T03:30:31.055Z,95457.63
2022-12-18T03:33:08.044Z,95453.41
2022-12-18T03:35:40.514Z,95450.63
2022-12-18T03:38:08.642Z,95452.59
2022-12-18T03:40:45.434Z,95457.47
2022-12-18T03:43:21.311Z,95423.53
2022-12-18T03:45:54.982Z,95440.84
2022-12-18T03:48:30.733Z,95433.16
2022-12-18T03:51:02.213Z,95419.47
2022-12-18T03:53:39.425Z,95432.34
2022-12-18T03:56:10.827Z,95392.44
2022-12-18T03:58:42.289Z,95368.66
2022-12-18T04:01:15.350Z,95371.41
2022-12-18T04:03:44.994Z,95379.06
2022-12-18T04:06:13.951Z,95372.22
2022-12-18T04:08:43.024Z,95370.59
2022-12-18T04:11:11.918Z,95362.13
2022-12-18T04:13:41.696Z,95365.38
2022-12-18T04:16:10.422Z,95340.31
2022-12-18T04:18:38.408Z,95356.91
2022-12-18T04:21:06.549Z,95368.97
2022-12-18T04:23:34.618Z,95362.94
2022-12-18T04:26:02.492Z,95359.53
2022-12-18T04:28:30.369Z,95380.06
2022-12-18T04:31:00.001Z,95370.78
2022-12-18T04:33:28.577Z,95372.22
2022-12-18T04:35:56.555Z,95342.75
2022-12-18T04:38:24.419Z,95366.53
2022-12-18T04:40:52.623Z,95364.75
2022-12-18T04:43:20.547Z,95368.16
2022-12-18T04:45:48.394Z,95352.84
2022-12-18T04:48:17.520Z,95351.22
2022-12-18T04:50:45.408Z,95342.59
2022-12-18T04:53:13.307Z,95334.44
2022-12-18T04:55:41.080Z,95342.75
2022-12-18T04:58:09.095Z,95342.09
2022-12-18T05:00:38.167Z,95331.84
2022-12-18T05:03:06.399Z,95301.19
2022-12-18T05:05:38.110Z,95307.22
2022-12-18T05:08:07.170Z,95312.44
2022-12-18T05:10:38.314Z,95300.38
2022-12-18T05:13:06.744Z,95284.25
2022-12-18T05:15:35.201Z,95302.16
2022-12-18T05:18:04.667Z,95281.00
2022-12-18T05:20:33.364Z,95284.59
2022-12-18T05:23:02.564Z,95302.16
2022-12-18T05:25:31.027Z,95275.31
2022-12-18T05:27:58.957Z,95282.63
2022-12-18T05:30:27.372Z,95299.56
2022-12-18T05:32:55.832Z,95299.56
2022-12-18T05:35:23.661Z,95299.56
2022-12-18T05:37:51.604Z,95297.94
2022-12-18T05:40:21.093Z,95305.75
2022-12-18T05:42:48.849Z,95293.53
2022-12-18T05:45:16.718Z,95297.28
2022-12-18T05:47:45.966Z,95285.88
2022-12-18T05:50:13.817Z,95272.53
2022-12-18T05:52:41.617Z,95274.97
2022-12-18T05:55:10.182Z,95292.06
2022-12-18T05:57:39.224Z,95295.34
2022-12-18T06:00:08.563Z,95309.19
2022-12-18T06:02:36.827Z,95323.34
2022-12-18T06:05:05.109Z,95329.88
2022-12-18T06:07:33.221Z,95330.19
2022-12-18T06:10:01.223Z,95346.50
2022-12-18T06:12:30.466Z,95364.91
2022-12-18T06:14:59.827Z,95357.91
2022-12-18T06:17:30.187Z,95385.09
2022-12-18T06:19:58.027Z,95389.50
2022-12-18T06:22:26.508Z,95390.97
2022-12-18T06:24:54.578Z,95401.88
2022-12-18T06:27:22.502Z,95408.56
2022-12-18T06:29:50.433Z,95413.78
2022-12-18T06:32:19.606Z,95429.91
2022-12-18T06:34:47.364Z,95428.28
2022-12-18T06:37:15.642Z,95437.72
2022-12-18T06:39:43.655Z,95398.81
2022-12-18T06:42:11.711Z,95413.94
2022-12-18T06:44:39.508Z,95412.16
2022-12-18T06:47:07.365Z,95422.25
2022-12-18T06:49:36.493Z,95426.47
2022-12-18T06:52:04.466Z,95425.03
2022-12-18T06:54:32.303Z,95444.28
2022-12-18T06:56:59.987Z,95437.56
2022-12-18T06:59:28.880Z,95437.41
2022-12-18T07:01:57.127Z,95442.63
2022-12-18T07:04:29.954Z,95448.69
2022-12-18T07:06:59.482Z,95441.16
2022-12-18T07:09:29.537Z,95458.63
2022-12-18T07:11:57.344Z,95450.16
2022-12-18T07:14:25.834Z,95461.88
2022-12-18T07:16:53.907Z,95465.63
2022-12-18T07:19:24.550Z,95470.69
2022-12-18T07:21:52.841Z,95449.50
2022-12-18T07:24:22.338Z,95450.31
2022-12-18T07:26:50.246Z,95455.38
2022-12-18T07:29:18.013Z,95472.31
2022-12-18T07:31:46.811Z,95461.88
2022-12-18T07:34:16.330Z,95480.13
2022-12-18T07:36:44.441Z,95484.38
2022-12-18T07:39:13.261Z,95480.78
2022-12-18T07:41:47.290Z,95482.59
2022-12-18T07:44:18.115Z,95496.13
2022-12-18T07:46:46.316Z,95495.94
2022-12-18T07:49:14.494Z,95514.69
2022-12-18T07:51:42.496Z,95504.91
2022-12-18T07:54:10.327Z,95511.91
2022-12-18T07:56:38.126Z,95525.44
2022-12-18T07:59:07.371Z,95543.41
2022-12-18T08:01:36.077Z,95546.00
2022-12-18T08:04:04.046Z,95557.78
2022-12-18T08:06:31.955Z,95563.66
2022-12-18T08:08:59.965Z,95568.22
2022-12-18T08:11:29.667Z,95579.78
2022-12-18T08:13:59.080Z,95592.34
2022-12-18T08:16:28.489Z,95605.56
2022-12-18T08:18:56.460Z,95622.19
2022-12-18T08:21:26.459Z,95617.78
2022-12-18T08:23:57.936Z,95645.84
2022-12-18T08:26:27.968Z,95653.38
2022-12-18T08:28:57.600Z,95683.09
2022-12-18T08:31:26.791Z,95705.94
2022-12-18T08:33:56.954Z,95715.09
2022-12-18T08:36:27.429Z,95751.97
2022-12-18T08:38:56.146Z,95771.09
2022-12-18T08:41:23.947Z,95792.50
2022-12-18T08:44:10.634Z,95814.38
2022-12-18T08:46:40.830Z,95824.53
2022-12-18T08:49:10.997Z,95831.38
2022-12-18T08:51:39.667Z,95858.50
2022-12-18T08:54:08.159Z,95868.63
2022-12-18T08:56:36.007Z,95886.59
2022-12-18T08:59:03.984Z,95923.06
2022-12-18T09:01:32.211Z,95941.88
2022-12-18T09:04:00.839Z,95932.22
2022-12-18T09:06:30.167Z,95962.13
2022-12-18T09:08:59.318Z,95954.28
2022-12-18T09:11:30.105Z,95949.22
2022-12-18T09:13:58.942Z,95990.91
2022-12-18T09:16:32.270Z,96016.44
2022-12-18T09:19:02.508Z,96037.53
2022-12-18T09:21:36.806Z,96058.97
2022-12-18T09:24:09.146Z,96066.81
2022-12-18T09:26:37.861Z,96078.44
2022-12-18T09:29:08.132Z,96097.91
2022-12-18T09:31:36.387Z,96114.91
2022-12-18T09:34:04.195Z,96104.94
2022-12-18T09:36:33.899Z,96121.81
2022-12-18T09:39:05.126Z,96121.81
2022-12-18T09:41:46.707Z,96114.91
2022-12-18T09:44:21.191Z,96117.19
2022-12-18T09:46:54.635Z,96149.00
2022-12-18T09:49:25.726Z,96159.13
2022-12-18T09:51:58.625Z,96152.59
2022-12-18T09:54:33.869Z,96153.25
2022-12-18T09:57:02.174Z,96164.38
2022-12-18T09:59:36.238Z,96176.16
2022-12-18T10:02:15.923Z,96197.28
2022-12-18T10:04:44.721Z,96199.88
2022-12-18T10:07:20.870Z,96207.59
2022-12-18T10:09:57.689Z,96200.56
2022-12-18T10:12:34.813Z,96230.50
2022-12-18T10:15:08.993Z,96221.34
2022-12-18T10:17:45.020Z,96228.88
2022-12-18T10:20:18.138Z,96256.09
2022-12-18T10:22:57.213Z,96264.59
2022-12-18T10:25:30.940Z,96270.34
2022-12-18T10:28:06.098Z,96294.41
2022-12-18T10:30:33.958Z,96288.50
2022-12-18T10:33:03.075Z,96315.69
2022-12-18T10:35:31.384Z,96302.91
2022-12-18T10:38:06.416Z,96291.59
2022-12-18T10:40:35.007Z,96320.63
2022-12-18T10:43:12.600Z,96314.06
2022-12-18T10:45:40.946Z,96323.41
2022-12-18T10:48:20.810Z,96334.38
2022-12-18T10:53:44.728Z,96338.47
2022-12-18T10:56:14.469Z,96344.53
2022-12-18T10:58:42.681Z,96349.78
2022-12-18T11:01:13.136Z,96356.69
2022-12-18T11:03:43.512Z,96347.16
2022-12-18T11:06:14.567Z,96355.72
2022-12-18T11:08:45.941Z,96361.59
2022-12-18T11:11:22.793Z,96363.25
2022-12-18T11:14:01.264Z,96364.88
2022-12-18T11:16:30.180Z,96352.56
2022-12-18T11:19:22.113Z,96369.16
2022-12-18T11:21:50.945Z,96381.28
2022-12-18T11:24:27.176Z,96355.72
2022-12-18T11:26:59.504Z,96337.66
2022-12-18T11:29:34.202Z,96349.78
2022-12-18T11:32:34.926Z,96386.19
2022-12-18T11:35:14.640Z,96377.84
2022-12-18T11:37:47.291Z,96374.38
2022-12-18T11:40:20.977Z,96365.88
2022-12-18T11:42:55.872Z,96371.09
2022-12-18T11:45:33.142Z,96370.13
2022-12-18T11:48:06.686Z,96358.31
2022-12-18T11:50:46.810Z,96380.28
2022-12-18T11:53:14.861Z,96377.84
2022-12-18T11:55:56.930Z,96389.63
2022-12-18T11:58:41.974Z,96404.22
2022-12-18T12:01:20.669Z,96398.97
2022-12-18T12:04:07.379Z,96415.19
2022-12-18T12:06:42.464Z,96421.25
2022-12-18T12:09:19.988Z,96419.31
2022-12-18T12:12:00.717Z,96417.00
2022-12-18T12:14:48.979Z,96418.63
2022-12-18T12:17:28.721Z,96428.00
2022-12-18T12:20:03.954Z,96448.47
2022-12-18T12:22:40.717Z,96440.63
2022-12-18T12:25:21.798Z,96457.00
2022-12-18T12:27:59.895Z,96454.53
2022-12-18T12:30:37.474Z,96458.81
2022-12-18T12:33:16.674Z,96448.78
2022-12-18T12:35:53.382Z,96486.22
2022-12-18T12:38:24.917Z,96471.47
2022-12-18T12:41:03.115Z,96488.66
2022-12-18T12:43:43.359Z,96494.41
2022-12-18T12:46:19.958Z,96494.41
2022-12-18T12:48:52.019Z,96512.44
2022-12-18T12:51:23.313Z,96510.81
2022-12-18T12:53:52.904Z,96513.13
2022-12-18T12:56:23.315Z,96510.66
2022-12-18T12:59:04.120Z,96521.97
2022-12-18T13:01:39.235Z,96520.81
2022-12-18T13:04:22.302Z,96536.25
2022-12-18T13:07:01.702Z,96541.16
2022-12-18T13:09:32.803Z,96549.69
2022-12-18T13:12:22.754Z,96562.13
2022-12-18T13:14:55.073Z,96583.84
2022-12-18T13:17:33.108Z,96567.72
2022-12-18T13:20:10.496Z,96571.50
2022-12-18T13:22:41.256Z,96595.97
2022-12-18T13:25:37.283Z,96614.19
2022-12-18T13:28:10.976Z,96595.81
2022-12-18T13:31:01.926Z,96617.47
2022-12-18T13:34:09.452Z,96616.50
2022-12-18T13:36:34.816Z,96596.25
2022-12-18T13:39:35.903Z,96599.44
2022-12-18T13:43:05.078Z,96616.34
2022-12-18T13:45:51.538Z,96623.06
2022-12-18T13:48:24.249Z,96621.56
2022-12-18T13:50:59.711Z,96615.00
2022-12-18T13:53:32.020Z,96633.41
2022-12-18T13:56:00.401Z,96629.28
2022-12-18T13:58:28.385Z,96646.34
2022-12-18T14:00:56.399Z,96650.63
2022-12-18T14:03:28.533Z,96645.53
2022-12-18T14:06:01.042Z,96650.63
2022-12-18T14:08:35.279Z,96665.06
2022-12-18T14:11:05.976Z,96665.06
2022-12-18T14:13:39.440Z,96665.91
2022-12-18T14:16:09.410Z,96670.00
2022-12-18T14:18:46.776Z,96678.84
2022-12-18T14:21:24.966Z,96689.03
2022-12-18T14:24:06.462Z,96670.63
2022-12-18T14:26:35.131Z,96679.53
2022-12-18T14:29:21.738Z,96682.16
2022-12-18T14:32:14.962Z,96662.28
2022-12-18T14:34:46.689Z,96663.44
2022-12-18T14:37:17.072Z,96655.56
2022-12-18T14:39:55.138Z,96656.53
2022-12-18T14:42:23.106Z,96656.03
2022-12-18T14:45:12.848Z,96649.66
2022-12-18T14:47:38.893Z,96626.00
2022-12-18T14:50:15.641Z,96581.38
2022-12-18T14:52:43.581Z,96584.94
2022-12-18T14:55:17.800Z,96580.03
2022-12-18T14:57:46.547Z,96561.00
2022-12-18T15:00:19.249Z,96539.00
2022-12-18T15:02:48.471Z,96521.97
2022-12-18T15:05:23.280Z,96511.78
2022-12-18T15:07:52.895Z,96498.34
2022-12-18T15:10:23.098Z,96507.53
2022-12-18T15:12:52.478Z,96521.97
2022-12-18T15:15:49.829Z,96554.13
2022-12-18T15:18:21.015Z,96578.88
2022-12-18T15:20:51.920Z,96614.03
2022-12-18T15:23:22.701Z,96636.03
2022-12-18T15:25:56.531Z,96674.59
2022-12-18T15:28:26.826Z,96674.59
2022-12-18T15:31:07.423Z,96659.00
2022-12-18T15:33:36.953Z,96662.75
2022-12-18T15:36:10.478Z,96645.53
2022-12-18T15:38:38.400Z,96648.97
2022-12-18T15:41:11.581Z,96649.97
2022-12-18T15:43:41.571Z,96639.78
2022-12-18T15:46:14.997Z,96644.03
2022-12-18T15:48:45.043Z,96617.47
2022-12-18T15:51:19.482Z,96617.47
2022-12-18T15:53:48.508Z,96626.97
2022-12-18T15:56:35.175Z,96621.56
2022-12-18T15:59:04.074Z,96635.50
2022-12-18T16:01:35.135Z,96619.94
2022-12-18T16:04:06.308Z,96626.00
2022-12-18T16:06:51.181Z,96639.78
2022-12-18T16:09:26.212Z,96622.72
2022-12-18T16:11:54.510Z,96618.44
2022-12-18T16:14:24.804Z,96599.59
2022-12-18T16:16:56.624Z,96597.13
2022-12-18T16:19:25.236Z,96611.56
2022-12-18T16:21:56.726Z,96600.41
2022-12-18T16:24:26.840Z,96574.13
2022-12-18T16:26:55.491Z,96597.94
2022-12-18T16:29:27.955Z,96617.47
2022-12-18T16:31:55.896Z,96646.97
2022-12-18T16:34:28.740Z,96668.66
2022-12-18T16:37:04.833Z,96662.59
2022-12-18T16:39:36.324Z,96649.81
2022-12-18T16:42:05.779Z,96655.06
2022-12-18T16:44:34.130Z,96645.69
2022-12-18T16:47:03.159Z,96645.84
2022-12-18T16:49:31.942Z,96627.97
2022-12-18T16:52:01.193Z,96609.91
2022-12-18T16:54:30.476Z,96577.41
2022-12-18T16:56:58.883Z,96558.03
2022-12-18T16:59:27.524Z,96540.00
2022-12-18T17:01:57.383Z,96513.75
2022-12-18T17:04:25.368Z,96524.75
2022-12-18T17:06:53.948Z,96533.25
2022-12-18T17:09:25.093Z,96560.66
2022-12-18T17:11:53.902Z,96558.84
2022-12-18T17:14:24.148Z,96545.25
2022-12-18T17:17:19.173Z,96526.38
2022-12-18T17:19:40.684Z,96517.03
2022-12-18T17:22:09.567Z,96502.59
2022-12-18T17:24:38.776Z,96498.34
2022-12-18T17:27:07.344Z,96458.28
2022-12-18T17:29:40.099Z,96445.50
2022-12-18T17:32:11.734Z,96441.72
2022-12-18T17:34:41.223Z,96423.53
2022-12-18T17:37:09.304Z,96448.94
2022-12-18T17:39:38.706Z,96456.66
2022-12-18T17:42:06.884Z,96451.56
2022-12-18T17:44:37.287Z,96451.72
2022-12-18T17:47:06.087Z,96454.19
2022-12-18T17:49:33.993Z,96456.00
2022-12-18T17:52:03.968Z,96448.28
2022-12-18T17:54:35.630Z,96458.44
2022-12-18T17:57:04.899Z,96449.41
2022-12-18T17:59:32.791Z,96456.97
2022-12-18T18:02:00.999Z,96445.66
2022-12-18T18:04:29.080Z,96436.97
2022-12-18T18:06:56.831Z,96451.72
2022-12-18T18:09:24.754Z,96462.56
2022-12-18T18:12:10.298Z,96466.97
2022-12-18T18:14:39.894Z,96453.38
2022-12-18T18:17:08.352Z,96438.13
2022-12-18T18:19:36.162Z,96413.38
2022-12-18T18:22:04.244Z,96398.28
2022-12-18T18:24:32.312Z,96405.81
2022-12-18T18:27:00.809Z,96382.88
2022-12-18T18:29:31.163Z,96391.41
2022-12-18T18:32:00.835Z,96382.56
2022-12-18T18:34:30.996Z,96361.53
2022-12-18T18:36:59.910Z,96346.16
2022-12-18T18:39:28.640Z,96369.25
2022-12-18T18:41:56.488Z,96335.16
2022-12-18T18:44:26.191Z,96316.97
2022-12-18T18:46:55.196Z,96332.72
2022-12-18T18:49:27.139Z,96339.59
2022-12-18T18:51:55.162Z,96340.09
2022-12-18T18:54:22.992Z,96320.75
2022-12-18T18:59:42.307Z,96333.03
2022-12-18T19:02:13.199Z,96317.47
2022-12-18T19:04:46.214Z,96320.75
2022-12-18T19:07:19.752Z,96280.13
2022-12-18T19:09:58.111Z,96258.66
2022-12-18T19:12:49.787Z,96242.44
2022-12-18T19:15:17.696Z,96221.31
2022-12-18T19:17:47.580Z,96201.81
2022-12-18T19:20:17.686Z,96199.06
2022-12-18T19:22:54.830Z,96209.53
2022-12-18T19:25:38.649Z,96169.41
2022-12-18T19:28:21.565Z,96150.72
2022-12-18T19:30:57.900Z,96186.75
2022-12-18T19:33:42.350Z,96220.50
2022-12-18T19:36:14.802Z,96243.25
2022-12-18T19:38:45.321Z,96240.78
2022-12-18T19:41:13.946Z,96252.09
2022-12-18T19:43:42.629Z,96228.19
2022-12-18T19:46:12.652Z,96233.25
2022-12-18T19:48:40.795Z,96257.81
2022-12-18T19:51:10.358Z,96229.16
2022-12-18T19:53:39.527Z,96216.06
2022-12-18T19:56:08.082Z,96234.25
2022-12-18T19:58:36.868Z,96236.69
2022-12-18T20:01:05.603Z,96232.28
2022-12-18T20:03:35.614Z,96191.69
2022-12-18T20:06:11.533Z,96166.16
2022-12-18T20:08:41.256Z,96169.59
2022-12-18T20:11:09.614Z,96151.88
2022-12-18T20:13:37.673Z,96131.25
2022-12-18T20:16:06.163Z,96117.84
2022-12-18T20:18:34.119Z,96108.34
2022-12-18T20:21:02.135Z,96090.69
2022-12-18T20:23:32.223Z,96056.94
2022-12-18T20:26:03.013Z,96022.59
2022-12-18T20:28:33.044Z,95956.56
2022-12-18T20:31:01.729Z,95913.69
2022-12-18T20:33:30.082Z,95941.19
2022-12-18T20:36:02.618Z,95912.41
2022-12-18T20:38:31.078Z,95907.50
2022-12-18T20:41:02.573Z,95942.84
2022-12-18T20:43:30.717Z,95924.34
2022-12-18T20:46:03.120Z,95934.34
2022-12-18T20:48:31.384Z,95896.22
2022-12-18T20:51:02.603Z,95903.91
2022-12-18T20:53:32.334Z,95912.25
2022-12-18T20:56:00.295Z,95938.72
2022-12-18T20:58:29.554Z,95885.28
2022-12-18T21:01:04.893Z,95839.53
2022-12-18T21:03:34.222Z,95845.06
2022-12-18T21:06:02.143Z,95878.41
2022-12-18T21:08:29.929Z,95879.41
2022-12-18T21:10:58.396Z,95892.63
2022-12-18T21:13:26.690Z,95905.53
2022-12-18T21:15:57.728Z,95926.78
2022-12-18T21:18:25.488Z,95877.59
2022-12-18T21:20:53.508Z,95854.88
2022-12-18T21:23:22.468Z,95793.44
2022-12-18T21:25:55.543Z,95769.94
2022-12-18T21:28:23.922Z,95735.16
2022-12-18T21:30:51.876Z,95715.06
2022-12-18T21:33:21.168Z,95752.78
2022-12-18T21:35:48.966Z,95742.19
2022-12-18T21:38:16.731Z,95739.06
2022-12-18T21:40:44.599Z,95719.16
2022-12-18T21:43:35.525Z,95692.03
2022-12-18T21:46:03.503Z,95721.63
2022-12-18T21:48:32.686Z,95769.13
2022-12-18T21:51:00.466Z,95798.69
2022-12-18T21:53:28.227Z,95829.38
2022-12-18T21:55:59.106Z,95823.19
2022-12-18T21:58:27.810Z,95821.53
2022-12-18T22:00:56.093Z,95809.78
2022-12-18T22:03:24.259Z,95783.31
2022-12-18T22:06:07.525Z,95789.38
2022-12-18T22:08:39.083Z,95801.28
2022-12-18T22:11:13.725Z,95766.34
2022-12-18T22:13:42.185Z,95743.66
2022-12-18T22:16:10.106Z,95734.47
2022-12-18T22:18:38.181Z,95749.69
2022-12-18T22:21:07.739Z,95739.25
2022-12-18T22:23:35.508Z,95728.47
2022-12-18T22:26:03.465Z,95702.31
2022-12-18T22:28:48.887Z,95708.03
2022-12-18T22:31:16.713Z,95714.88
2022-12-18T22:33:44.465Z,95723.41
2022-12-18T22:36:15.758Z,95702.00
2022-12-18T22:38:47.810Z,95692.84
2022-12-18T22:41:15.566Z,95664.78
2022-12-18T22:43:43.305Z,95596.25
2022-12-18T22:46:16.084Z,95585.47
2022-12-18T22:48:43.977Z,95575.03
2022-12-18T22:51:17.524Z,95562.66
2022-12-18T22:53:45.878Z,95559.22
2022-12-18T22:56:21.088Z,95534.59
2022-12-18T22:58:50.039Z,95550.75
2022-12-18T23:01:21.220Z,95570.81
2022-12-18T23:03:49.888Z,95582.88
2022-12-18T23:06:19.428Z,95605.72
2022-12-18T23:08:51.687Z,95604.06
2022-12-18T23:11:22.596Z,95614.22
2022-12-18T23:13:50.488Z,95591.34
2022-12-18T23:16:21.719Z,95557.44
2022-12-18T23:18:54.763Z,95472.31
2022-12-18T23:21:25.068Z,95481.25
2022-12-18T23:23:53.723Z,95511.78
2022-12-18T23:26:23.687Z,95501.31
2022-12-18T23:28:52.520Z,95537.22
2022-12-18T23:31:23.564Z,95555.97
2022-12-18T23:33:52.980Z,95519.28
2022-12-18T23:36:21.804Z,95489.91
2022-12-18T23:38:52.237Z,95483.06
2022-12-18T23:41:21.899Z,95484.84
2022-12-18T23:43:50.212Z,95491.53
2022-12-18T23:46:20.757Z,95503.31
2022-12-18T23:48:48.728Z,95485.66
2022-12-18T23:51:18.064Z,95427.97
2022-12-18T23:53:46.436Z,95383.16
2022-12-18T23:56:15.613Z,95296.19
2022-12-18T23:58:44.048Z,95245.19
